Time;durP1;ratioP1;P1;durP2;ratioP2;P2;SDS_P1;SDS_P2;PMS_P1;PMS_P2;Temp;Humidity;BMP_temperature;BMP_pressure;BME280_temperature;BME280_humidity;BME280_pressure;Samples;Min_cycle;Max_cycle;Signal;HPM_P1;HPM_P2
2022/03/26 00:01:18;;;;;;;111.60;55.50;;;;;;;;;;5061081;28;20213;-52
2022/03/26 00:03:46;;;;;;;111.53;55.80;;;6.80;99.90;;;;;;5063156;28;20683;-45
2022/03/26 00:06:13;;;;;;;116.73;55.37;;;6.80;99.90;;;;;;5055732;28;20308;-50
2022/03/26 00:08:40;;;;;;;116.43;57.27;;;6.80;99.90;;;;;;5061989;28;20197;-46
2022/03/26 00:11:07;;;;;;;116.57;58.03;;;6.70;99.90;;;;;;5062117;28;20305;-51
2022/03/26 00:13:34;;;;;;;113.33;56.93;;;6.70;99.90;;;;;;5042200;28;20681;-48
2022/03/26 00:16:01;;;;;;;116.00;56.23;;;6.70;99.90;;;;;;5062371;28;20230;-45
2022/03/26 00:18:28;;;;;;;109.37;55.00;;;6.70;99.90;;;;;;5059357;28;20191;-48
2022/03/26 00:20:56;;;;;;;113.23;55.37;;;6.70;99.90;;;;;;5058390;28;20209;-49
2022/03/26 00:23:23;;;;;;;118.23;58.07;;;6.70;99.90;;;;;;5059580;28;20190;-47
2022/03/26 00:25:50;;;;;;;117.43;57.97;;;6.70;99.90;;;;;;5062508;28;20240;-47
2022/03/26 00:28:17;;;;;;;116.13;57.63;;;6.70;99.90;;;;;;5053896;28;20293;-52
2022/03/26 00:30:44;;;;;;;119.97;57.70;;;6.60;99.90;;;;;;5048906;28;20220;-46
2022/03/26 00:33:11;;;;;;;115.37;57.07;;;6.60;99.90;;;;;;5061131;28;20203;-49
2022/03/26 00:35:38;;;;;;;117.13;55.00;;;6.60;99.90;;;;;;5055819;28;20222;-45
2022/03/26 00:38:06;;;;;;;123.10;58.53;;;6.60;99.90;;;;;;5062074;28;20237;-49
2022/03/26 00:40:32;;;;;;;118.57;58.03;;;6.60;99.90;;;;;;5060364;28;20199;-48
2022/03/26 00:43:00;;;;;;;114.53;56.67;;;6.50;99.90;;;;;;5062548;28;20198;-46
2022/03/26 00:45:29;;;;;;;126.17;59.67;;;6.60;99.90;;;;;;5037342;28;20206;-45
2022/03/26 00:47:56;;;;;;;120.67;59.40;;;6.50;99.90;;;;;;5061197;28;20609;-46
2022/03/26 00:50:23;;;;;;;117.80;57.40;;;6.50;99.90;;;;;;5053103;28;20213;-47
2022/03/26 00:52:50;;;;;;;121.40;57.87;;;6.50;99.90;;;;;;5062459;28;20587;-46
2022/03/26 00:55:18;;;;;;;119.20;58.63;;;6.40;99.90;;;;;;5060151;28;20222;-50
2022/03/26 00:57:45;;;;;;;122.57;57.70;;;6.40;99.90;;;;;;5061942;28;20195;-45
2022/03/26 01:00:13;;;;;;;119.27;57.10;;;6.40;99.90;;;;;;5047305;28;20210;-49
2022/03/26 01:02:40;;;;;;;118.60;58.97;;;6.40;99.90;;;;;;5060749;28;20853;-47
2022/03/26 01:05:07;;;;;;;130.27;60.33;;;6.40;99.90;;;;;;5061642;28;20691;-49
2022/03/26 01:07:34;;;;;;;117.87;57.93;;;6.40;99.90;;;;;;5055738;28;20202;-47
2022/03/26 01:10:02;;;;;;;115.00;56.03;;;6.30;99.90;;;;;;5063212;28;20210;-49
2022/03/26 01:12:30;;;;;;;120.63;55.63;;;6.30;99.90;;;;;;5059249;28;20216;-48
2022/03/26 01:14:57;;;;;;;111.17;55.50;;;6.30;99.90;;;;;;5045001;28;20219;-46
2022/03/26 01:17:25;;;;;;;113.20;56.53;;;6.20;99.90;;;;;;5057604;28;20194;-45
2022/03/26 01:19:54;;;;;;;125.50;58.60;;;6.20;99.90;;;;;;5062315;28;20197;-47
2022/03/26 01:22:21;;;;;;;121.17;56.90;;;6.20;99.90;;;;;;5053675;28;20199;-50
2022/03/26 01:24:47;;;;;;;119.07;58.00;;;6.20;99.90;;;;;;5062670;28;20214;-46
2022/03/26 01:27:14;;;;;;;115.77;56.90;;;6.20;99.90;;;;;;5059296;28;20199;-51
2022/03/26 01:29:43;;;;;;;120.53;58.60;;;6.10;99.90;;;;;;5063397;28;20229;-45
2022/03/26 01:32:11;;;;;;;115.93;57.37;;;6.10;99.90;;;;;;5049501;28;20222;-49
2022/03/26 01:34:38;;;;;;;117.17;57.43;;;6.10;99.90;;;;;;5064487;28;20943;-45
2022/03/26 01:37:06;;;;;;;121.47;58.90;;;6.10;99.90;;;;;;5060164;28;20200;-48
2022/03/26 01:39:33;;;;;;;120.70;59.17;;;6.10;99.90;;;;;;5063663;28;20194;-52
2022/03/26 01:42:05;;;;;;;122.67;57.93;;;6.10;99.90;;;;;;5060219;28;20207;-46
2022/03/26 01:44:32;;;;;;;121.00;58.60;;;6.10;99.90;;;;;;5063352;28;20225;-46
2022/03/26 01:47:01;;;;;;;117.73;56.70;;;6.10;99.90;;;;;;5048015;28;20683;-47
2022/03/26 01:49:28;;;;;;;121.20;57.87;;;6.10;99.90;;;;;;5060976;28;20191;-45
2022/03/26 01:51:55;;;;;;;118.83;57.90;;;6.10;99.90;;;;;;5061051;28;20222;-46
2022/03/26 01:54:23;;;;;;;126.10;59.57;;;6.00;99.90;;;;;;5062243;28;20202;-48
2022/03/26 01:56:51;;;;;;;120.77;57.93;;;6.00;99.90;;;;;;5065847;28;20203;-47
2022/03/26 01:59:19;;;;;;;121.37;58.67;;;6.00;99.90;;;;;;5063111;28;20564;-51
2022/03/26 02:01:45;;;;;;;129.20;57.80;;;6.00;99.90;;;;;;5047246;28;20214;-47
2022/03/26 02:04:14;;;;;;;123.33;57.93;;;6.00;99.90;;;;;;5063272;28;20226;-50
2022/03/26 02:06:42;;;;;;;121.20;58.37;;;6.00;99.90;;;;;;5058588;28;20210;-46
2022/03/26 02:09:10;;;;;;;126.03;60.07;;;6.00;99.90;;;;;;5064644;28;20197;-50
2022/03/26 02:11:39;;;;;;;125.73;61.20;;;6.00;99.90;;;;;;5063714;28;20246;-45
2022/03/26 02:14:08;;;;;;;111.70;57.37;;;6.00;99.90;;;;;;5064950;28;20199;-51
2022/03/26 02:16:38;;;;;;;116.77;56.10;;;6.00;99.90;;;;;;5057863;28;20190;-45
2022/03/26 02:19:06;;;;;;;126.73;59.43;;;6.00;99.90;;;;;;5051181;28;20218;-50
2022/03/26 02:21:35;;;;;;;120.90;57.50;;;6.00;99.90;;;;;;5062783;28;20187;-46
2022/03/26 02:24:03;;;;;;;124.80;58.43;;;5.90;99.90;;;;;;5060289;28;20217;-49
2022/03/26 02:26:31;;;;;;;113.43;56.43;;;5.90;99.90;;;;;;5061635;28;20289;-47
2022/03/26 02:29:04;;;;;;;115.90;55.83;;;5.90;99.90;;;;;;5065634;28;20206;-45
2022/03/26 02:31:31;;;;;;;114.20;56.37;;;6.00;99.90;;;;;;5062450;28;20221;-47
2022/03/26 02:33:58;;;;;;;127.80;58.70;;;5.90;99.90;;;;;;5051866;28;20203;-46
2022/03/26 02:36:25;;;;;;;116.20;56.03;;;5.90;99.90;;;;;;5060649;28;20215;-46
2022/03/26 02:38:53;;;;;;;114.97;55.33;;;5.90;99.90;;;;;;5060493;28;20691;-46
2022/03/26 02:41:19;;;;;;;120.30;58.23;;;5.90;99.90;;;;;;5061367;28;20213;-49
2022/03/26 02:43:46;;;;;;;110.60;56.67;;;5.90;99.90;;;;;;5065335;28;20234;-48
2022/03/26 02:46:13;;;;;;;122.77;55.50;;;5.90;99.90;;;;;;5062448;28;20557;-50
2022/03/26 02:48:42;;;;;;;112.90;54.07;;;5.90;99.90;;;;;;5063621;28;20977;-45
2022/03/26 02:51:09;;;;;;;118.77;58.17;;;5.80;99.90;;;;;;5045797;28;20218;-52
2022/03/26 02:53:35;;;;;;;120.17;56.67;;;5.80;99.90;;;;;;5057152;28;20939;-47
2022/03/26 02:56:04;;;;;;;117.83;55.57;;;5.80;99.90;;;;;;5063312;28;20229;-52
2022/03/26 02:58:31;;;;;;;112.60;53.87;;;5.80;99.90;;;;;;5061864;28;20202;-53
2022/03/26 03:00:58;;;;;;;120.00;55.93;;;5.70;99.90;;;;;;5064853;28;20203;-45
2022/03/26 03:03:25;;;;;;;116.53;54.70;;;5.70;99.90;;;;;;5060607;28;20195;-47
2022/03/26 03:05:52;;;;;;;126.07;57.90;;;5.70;99.90;;;;;;5049552;28;20238;-46
2022/03/26 03:08:18;;;;;;;133.47;58.20;;;5.70;99.90;;;;;;5057481;28;20191;-51
2022/03/26 03:10:46;;;;;;;117.47;56.03;;;5.70;99.90;;;;;;5059145;28;20218;-50
2022/03/26 03:13:14;;;;;;;119.40;55.90;;;5.70;99.90;;;;;;5062600;28;20205;-48
2022/03/26 03:15:43;;;;;;;126.43;55.53;;;5.70;99.90;;;;;;5063253;28;20222;-46
2022/03/26 03:18:10;;;;;;;111.90;56.90;;;5.70;99.90;;;;;;5062630;28;20285;-51
2022/03/26 03:20:37;;;;;;;127.90;57.60;;;5.70;99.90;;;;;;5048786;28;23352;-45
2022/03/26 03:23:05;;;;;;;118.30;56.17;;;5.70;99.90;;;;;;5063948;28;20203;-47
2022/03/26 03:25:32;;;;;;;123.07;56.40;;;5.60;99.90;;;;;;5056296;28;20875;-45
2022/03/26 03:27:59;;;;;;;107.47;53.87;;;5.70;99.90;;;;;;5063768;28;20205;-46
2022/03/26 03:30:28;;;;;;;108.77;53.73;;;5.70;99.90;;;;;;5060292;28;20230;-49
2022/03/26 03:32:56;;;;;;;112.30;54.83;;;5.70;99.90;;;;;;5064289;28;20205;-46
2022/03/26 03:35:22;;;;;;;114.73;54.87;;;5.60;99.90;;;;;;5060299;28;20296;-47
2022/03/26 03:37:50;;;;;;;115.80;54.83;;;5.60;99.90;;;;;;5050231;28;20281;-48
2022/03/26 03:40:17;;;;;;;111.83;53.00;;;5.60;99.90;;;;;;5057271;28;20195;-49
2022/03/26 03:42:45;;;;;;;111.10;53.93;;;5.60;99.90;;;;;;5062557;28;20191;-46
2022/03/26 03:45:12;;;;;;;111.77;52.87;;;5.50;99.90;;;;;;5060700;28;20214;-48
2022/03/26 03:47:40;;;;;;;110.23;53.10;;;5.50;99.90;;;;;;5061943;28;20945;-49
2022/03/26 03:50:08;;;;;;;108.90;51.70;;;5.50;99.90;;;;;;5062941;28;20685;-50
2022/03/26 03:52:35;;;;;;;112.93;53.13;;;5.50;99.90;;;;;;5046687;28;20201;-48
2022/03/26 03:55:02;;;;;;;106.37;52.60;;;5.50;99.90;;;;;;5063417;28;20223;-49
2022/03/26 03:57:29;;;;;;;108.67;52.03;;;5.50;99.90;;;;;;5054246;28;20191;-49
2022/03/26 03:59:56;;;;;;;115.20;52.53;;;5.50;99.90;;;;;;5063641;28;20191;-47
2022/03/26 04:02:22;;;;;;;114.40;54.13;;;5.40;99.90;;;;;;5059752;28;20198;-46
2022/03/26 04:04:50;;;;;;;114.37;52.03;;;5.40;99.90;;;;;;5063936;28;20226;-45
2022/03/26 04:07:17;;;;;;;106.23;51.43;;;5.40;99.90;;;;;;5049266;28;20682;-49
2022/03/26 04:09:45;;;;;;;111.87;53.43;;;5.40;99.90;;;;;;5061592;28;20667;-47
2022/03/26 04:12:12;;;;;;;102.27;50.50;;;5.40;99.90;;;;;;5055587;28;20221;-52
2022/03/26 04:14:43;;;;;;;113.87;52.73;;;5.40;99.90;;;;;;5061579;28;20214;-50
2022/03/26 04:17:10;;;;;;;104.13;49.57;;;5.30;99.90;;;;;;5060864;28;20207;-48
2022/03/26 04:19:38;;;;;;;106.73;52.47;;;5.30;99.90;;;;;;5061929;28;20520;-45
2022/03/26 04:22:07;;;;;;;105.30;50.73;;;5.30;99.90;;;;;;5059555;28;20252;-50
2022/03/26 04:24:36;;;;;;;105.47;52.63;;;5.30;99.90;;;;;;5053041;28;20277;-50
2022/03/26 04:27:03;;;;;;;104.83;50.27;;;5.30;99.90;;;;;;5056588;28;20213;-46
2022/03/26 04:29:31;;;;;;;113.97;51.80;;;5.30;99.90;;;;;;5059860;28;20438;-46
2022/03/26 04:31:58;;;;;;;101.37;52.70;;;5.30;99.90;;;;;;5063035;28;20816;-48
2022/03/26 04:34:25;;;;;;;111.57;51.97;;;5.30;99.90;;;;;;5059303;28;20190;-48
2022/03/26 04:36:53;;;;;;;107.13;50.87;;;5.30;99.90;;;;;;5062931;28;20682;-47
2022/03/26 04:39:21;;;;;;;108.50;52.47;;;5.30;99.90;;;;;;5046232;28;20209;-50
2022/03/26 04:41:48;;;;;;;103.50;53.73;;;5.30;99.90;;;;;;5063103;28;20193;-51
2022/03/26 04:44:15;;;;;;;115.53;53.20;;;5.30;99.90;;;;;;5054747;28;20302;-50
2022/03/26 04:46:43;;;;;;;116.80;53.63;;;5.30;99.90;;;;;;5061406;28;20194;-47
2022/03/26 04:49:09;;;;;;;108.87;53.50;;;5.30;99.90;;;;;;5061640;28;20202;-48
2022/03/26 04:51:36;;;;;;;110.93;54.77;;;5.30;99.90;;;;;;5060646;28;20805;-48
2022/03/26 04:54:03;;;;;;;111.33;53.80;;;5.30;99.90;;;;;;5047624;28;20206;-51
2022/03/26 04:56:32;;;;;;;111.03;54.00;;;5.30;99.90;;;;;;5058810;28;20898;-46
2022/03/26 04:58:59;;;;;;;115.23;54.93;;;5.30;99.90;;;;;;5057355;28;20215;-46
2022/03/26 05:01:26;;;;;;;105.73;52.43;;;5.30;99.90;;;;;;5058935;28;20194;-46
2022/03/26 05:03:53;;;;;;;117.20;54.93;;;5.30;99.90;;;;;;5062456;28;20240;-47
2022/03/26 05:06:20;;;;;;;126.50;57.20;;;5.30;99.90;;;;;;5058332;28;20242;-51
2022/03/26 05:08:48;;;;;;;118.17;55.87;;;5.30;99.90;;;;;;5046312;28;20204;-50
2022/03/26 05:11:38;;;;;;;115.17;54.00;;;5.30;99.90;;;;;;5054897;28;20225;-51
2022/03/26 05:14:05;;;;;;;111.63;53.93;;;5.30;99.90;;;;;;5056324;28;20207;-50
2022/03/26 05:16:32;;;;;;;115.57;56.27;;;5.30;99.90;;;;;;5059176;28;20198;-50
2022/03/26 05:19:00;;;;;;;113.10;55.27;;;5.30;99.90;;;;;;5063174;28;20201;-47
2022/03/26 05:21:26;;;;;;;117.70;55.83;;;5.30;99.90;;;;;;5058952;28;20270;-46
2022/03/26 05:23:53;;;;;;;112.63;54.20;;;5.30;99.90;;;;;;5045338;28;20215;-48
2022/03/26 05:26:22;;;;;;;115.73;56.07;;;5.30;99.90;;;;;;5057008;28;20226;-49
2022/03/26 05:28:51;;;;;;;106.87;54.47;;;5.30;99.90;;;;;;5062264;28;20198;-46
2022/03/26 05:31:18;;;;;;;122.30;55.00;;;5.30;99.90;;;;;;5053862;28;20219;-51
2022/03/26 05:33:45;;;;;;;119.17;55.50;;;5.30;99.90;;;;;;5062182;28;20675;-48
2022/03/26 05:36:12;;;;;;;119.40;55.77;;;5.30;99.90;;;;;;5059837;28;20269;-51
2022/03/26 05:38:39;;;;;;;120.47;56.10;;;5.30;99.90;;;;;;5047868;28;20210;-50
2022/03/26 05:41:07;;;;;;;116.07;54.97;;;5.30;99.90;;;;;;5061147;28;20663;-50
2022/03/26 05:43:34;;;;;;;128.93;57.30;;;5.30;99.90;;;;;;5059483;28;21091;-50
2022/03/26 05:46:01;;;;;;;118.07;57.77;;;5.30;99.90;;;;;;5056190;28;20229;-49
2022/03/26 05:48:28;;;;;;;115.37;55.37;;;5.30;99.90;;;;;;5058738;28;20218;-47
2022/03/26 05:50:55;;;;;;;115.67;56.80;;;5.40;99.90;;;;;;5059664;28;20205;-52
2022/03/26 05:53:21;;;;;;;115.27;56.87;;;5.40;99.90;;;;;;5052807;28;20194;-47
2022/03/26 05:55:48;;;;;;;125.77;57.20;;;5.40;99.90;;;;;;5041868;28;20218;-53
2022/03/26 05:58:16;;;;;;;123.10;56.73;;;5.40;99.90;;;;;;5051392;28;20201;-48
2022/03/26 06:00:43;;;;;;;123.50;58.00;;;5.50;99.90;;;;;;5061674;28;20203;-48
2022/03/26 06:03:11;;;;;;;121.37;58.23;;;5.50;99.90;;;;;;5053562;28;20209;-53
2022/03/26 06:05:39;;;;;;;123.93;58.13;;;5.50;99.90;;;;;;5051678;28;20230;-50
2022/03/26 06:08:08;;;;;;;115.47;56.20;;;5.50;99.90;;;;;;5053539;28;20214;-52
2022/03/26 06:10:35;;;;;;;128.20;58.37;;;5.60;99.90;;;;;;5038538;28;20671;-48
2022/03/26 06:13:02;;;;;;;127.60;59.40;;;5.60;99.90;;;;;;5052246;28;20253;-50
2022/03/26 06:15:28;;;;;;;131.83;61.07;;;5.70;99.90;;;;;;5057381;28;20206;-50
2022/03/26 06:17:55;;;;;;;130.33;60.07;;;5.70;99.90;;;;;;5056840;28;20769;-47
2022/03/26 06:20:23;;;;;;;134.80;61.63;;;5.80;99.90;;;;;;5060006;28;20195;-47
2022/03/26 06:22:50;;;;;;;125.10;58.87;;;5.80;99.90;;;;;;5061849;28;20190;-46
2022/03/26 06:25:16;;;;;;;124.53;57.77;;;5.90;99.90;;;;;;5048728;28;20290;-47
2022/03/26 06:27:43;;;;;;;126.83;59.13;;;6.00;99.90;;;;;;5042541;28;20210;-46
2022/03/26 06:30:11;;;;;;;118.43;59.93;;;6.00;99.90;;;;;;5054737;28;20210;-50
2022/03/26 06:32:38;;;;;;;120.43;55.00;;;6.10;99.90;;;;;;5046276;28;20250;-48
2022/03/26 06:35:06;;;;;;;123.77;59.10;;;6.20;99.90;;;;;;5058408;28;20223;-52
2022/03/26 06:37:34;;;;;;;126.77;57.30;;;6.20;99.90;;;;;;5051061;28;20202;-50
2022/03/26 06:40:01;;;;;;;128.13;59.47;;;6.30;99.90;;;;;;5060594;28;20731;-48
2022/03/26 06:42:29;;;;;;;125.67;58.90;;;6.40;99.90;;;;;;5044669;28;20216;-45
2022/03/26 06:44:59;;;;;;;124.53;55.97;;;6.50;99.90;;;;;;5052843;28;20757;-50
2022/03/26 06:47:27;;;;;;;123.17;59.53;;;6.60;99.90;;;;;;5055787;28;20525;-47
2022/03/26 06:49:57;;;;;;;113.73;54.70;;;6.60;99.90;;;;;;5057966;28;20214;-51
2022/03/26 06:52:24;;;;;;;118.83;56.47;;;6.70;99.90;;;;;;5063030;28;20226;-45
2022/03/26 06:54:52;;;;;;;106.90;53.80;;;6.80;99.90;;;;;;5059426;28;20253;-46
2022/03/26 06:57:20;;;;;;;118.83;55.00;;;6.90;99.90;;;;;;5046280;28;20532;-47
2022/03/26 06:59:47;;;;;;;116.57;55.20;;;7.00;99.90;;;;;;5064805;28;20203;-49
2022/03/26 07:02:14;;;;;;;116.07;55.50;;;7.10;99.90;;;;;;5056576;28;20199;-47
2022/03/26 07:04:41;;;;;;;102.43;52.53;;;7.20;99.90;;;;;;5060019;28;20215;-45
2022/03/26 07:07:07;;;;;;;109.07;52.33;;;7.30;99.90;;;;;;5060582;28;20202;-47
2022/03/26 07:09:36;;;;;;;110.60;52.77;;;7.30;99.90;;;;;;5060275;28;20230;-45
2022/03/26 07:12:05;;;;;;;110.33;52.03;;;7.40;99.90;;;;;;5058612;28;20213;-52
2022/03/26 07:14:32;;;;;;;114.47;53.40;;;7.50;99.90;;;;;;5044027;28;20257;-46
2022/03/26 07:16:59;;;;;;;102.37;49.30;;;7.60;99.90;;;;;;5056505;28;20213;-51
2022/03/26 07:19:26;;;;;;;97.77;48.60;;;7.80;99.90;;;;;;5063695;28;20191;-46
2022/03/26 07:21:53;;;;;;;92.97;46.43;;;7.90;99.90;;;;;;5058517;28;20562;-48
2022/03/26 07:24:20;;;;;;;91.53;47.33;;;8.00;99.90;;;;;;5057024;28;20217;-48
2022/03/26 07:26:47;;;;;;;89.43;43.47;;;8.10;99.90;;;;;;5062476;28;20671;-48
2022/03/26 07:29:15;;;;;;;89.07;45.47;;;8.30;99.90;;;;;;5042706;28;20202;-45
2022/03/26 07:31:42;;;;;;;81.37;41.27;;;8.40;99.90;;;;;;5058008;28;20278;-45
2022/03/26 07:34:11;;;;;;;71.83;41.17;;;8.50;99.90;;;;;;5059820;28;20281;-49
2022/03/26 07:36:38;;;;;;;84.17;42.20;;;8.60;99.90;;;;;;5058466;28;20199;-48
2022/03/26 07:39:05;;;;;;;73.97;39.53;;;8.60;99.90;;;;;;5054655;28;20289;-51
2022/03/26 07:41:31;;;;;;;79.00;41.03;;;8.70;99.90;;;;;;5064019;28;20210;-47
2022/03/26 07:43:59;;;;;;;72.13;39.53;;;8.80;99.90;;;;;;5061026;28;20645;-51
2022/03/26 07:46:27;;;;;;;79.23;40.80;;;8.90;99.90;;;;;;5051604;28;20226;-45
2022/03/26 07:48:54;;;;;;;72.77;39.67;;;8.90;99.90;;;;;;5060436;28;20205;-49
2022/03/26 07:51:21;;;;;;;74.90;40.57;;;9.00;99.90;;;;;;5053465;28;20317;-45
2022/03/26 07:53:47;;;;;;;74.27;39.00;;;9.10;99.90;;;;;;5058870;28;22103;-49
2022/03/26 07:56:14;;;;;;;72.93;37.93;;;9.20;99.90;;;;;;5053099;28;20845;-45
2022/03/26 07:58:42;;;;;;;70.83;37.13;;;9.30;99.90;;;;;;5060742;28;20212;-49
2022/03/26 08:01:09;;;;;;;69.47;35.83;;;9.30;99.90;;;;;;5039947;28;20268;-45
2022/03/26 08:03:37;;;;;;;59.47;36.93;;;9.40;99.90;;;;;;5066819;28;20298;-46
2022/03/26 08:06:04;;;;;;;60.50;34.77;;;9.50;99.90;;;;;;5056661;28;20222;-47
2022/03/26 08:08:31;;;;;;;62.87;35.00;;;9.50;99.90;;;;;;5058484;28;20229;-45
2022/03/26 08:10:58;;;;;;;66.30;35.63;;;9.60;99.90;;;;;;5053375;28;20199;-48
2022/03/26 08:13:25;;;;;;;52.20;28.83;;;9.70;99.90;;;;;;5060576;28;20221;-45
2022/03/26 08:15:52;;;;;;;52.73;29.73;;;9.80;99.90;;;;;;5051086;28;20215;-47
2022/03/26 08:18:19;;;;;;;44.17;27.60;;;9.80;99.90;;;;;;5044966;28;20211;-50
2022/03/26 08:20:47;;;;;;;50.37;27.40;;;10.00;99.90;;;;;;5061820;28;20183;-51
2022/03/26 08:23:14;;;;;;;43.77;26.40;;;10.10;99.90;;;;;;5056892;28;20210;-49
2022/03/26 08:28:26;;;;;;;47.50;25.23;;;10.30;99.90;;;;;;5049111;28;20202;-47
2022/03/26 08:30:52;;;;;;;38.27;24.10;;;10.40;99.90;;;;;;5058359;28;20286;-48
2022/03/26 08:33:19;;;;;;;43.50;24.37;;;10.60;99.90;;;;;;5044530;28;20229;-50
2022/03/26 08:35:47;;;;;;;45.03;24.97;;;10.70;99.90;;;;;;5059884;28;20321;-50
2022/03/26 08:38:15;;;;;;;42.60;25.70;;;10.80;99.90;;;;;;5058716;28;20199;-50
2022/03/26 08:40:42;;;;;;;44.33;25.63;;;10.80;99.90;;;;;;5058276;28;20203;-46
2022/03/26 08:43:10;;;;;;;40.17;23.73;;;10.90;99.90;;;;;;5062037;28;20190;-51
2022/03/26 08:45:37;;;;;;;42.70;25.77;;;11.00;99.90;;;;;;5052314;28;20240;-46
2022/03/26 08:48:04;;;;;;;42.63;24.50;;;11.00;99.90;;;;;;5062295;28;20739;-45
2022/03/26 08:50:31;;;;;;;42.70;25.93;;;11.10;99.90;;;;;;5042367;28;20210;-45
2022/03/26 08:53:00;;;;;;;46.90;25.60;;;11.20;99.90;;;;;;5063149;28;20219;-50
2022/03/26 08:55:27;;;;;;;45.60;25.77;;;11.30;99.90;;;;;;5053946;28;20225;-46
2022/03/26 08:57:57;;;;;;;40.07;25.47;;;11.30;99.90;;;;;;5065864;28;20191;-48
2022/03/26 09:00:25;;;;;;;35.50;21.63;;;11.30;99.90;;;;;;5059309;28;20211;-51
2022/03/26 09:02:51;;;;;;;34.17;22.73;;;11.40;99.90;;;;;;5049520;28;20656;-48
2022/03/26 09:05:18;;;;;;;34.33;21.73;;;11.40;99.90;;;;;;5041018;28;20237;-47
2022/03/26 09:07:45;;;;;;;34.37;21.77;;;11.50;99.90;;;;;;5048929;28;20204;-47
2022/03/26 09:10:13;;;;;;;33.53;20.53;;;11.60;99.90;;;;;;5050810;28;20202;-51
2022/03/26 09:12:40;;;;;;;33.83;19.70;;;11.70;99.90;;;;;;5059910;28;20640;-45
2022/03/26 09:15:08;;;;;;;29.80;18.13;;;11.70;99.90;;;;;;5061196;28;20695;-51
2022/03/26 09:17:35;;;;;;;24.70;15.83;;;11.80;99.90;;;;;;5059676;28;20199;-47
2022/03/26 09:20:03;;;;;;;28.13;16.43;;;11.80;99.90;;;;;;5049618;28;20206;-49
2022/03/26 09:22:30;;;;;;;26.97;16.67;;;11.80;99.90;;;;;;5056298;28;20187;-49
2022/03/26 09:24:56;;;;;;;26.03;16.87;;;11.80;99.90;;;;;;5051360;28;20218;-49
2022/03/26 09:27:25;;;;;;;23.07;13.37;;;11.80;99.90;;;;;;5050035;28;20198;-50
2022/03/26 09:29:52;;;;;;;18.03;11.97;;;11.90;99.90;;;;;;5053982;28;20252;-46
2022/03/26 09:32:20;;;;;;;16.40;9.33;;;11.90;99.90;;;;;;5052767;28;20218;-51
2022/03/26 09:34:48;;;;;;;14.50;8.93;;;12.00;99.90;;;;;;5054907;28;20222;-49
2022/03/26 09:37:15;;;;;;;15.27;8.30;;;12.20;99.90;;;;;;5040698;28;20544;-49
2022/03/26 09:39:42;;;;;;;13.07;8.83;;;12.20;99.90;;;;;;5054919;28;20203;-46
2022/03/26 09:42:11;;;;;;;12.57;8.77;;;12.20;99.90;;;;;;5053094;28;20555;-51
2022/03/26 09:44:40;;;;;;;12.73;8.83;;;12.20;99.90;;;;;;5059014;28;20973;-45
2022/03/26 09:47:09;;;;;;;14.80;8.60;;;12.30;99.90;;;;;;5059924;28;20278;-49
2022/03/26 09:49:37;;;;;;;18.60;8.37;;;12.30;99.90;;;;;;5060115;28;20191;-44
2022/03/26 09:52:06;;;;;;;18.03;9.13;;;12.30;99.90;;;;;;5048194;28;20238;-47
2022/03/26 09:54:33;;;;;;;12.43;8.57;;;12.40;99.90;;;;;;5057000;28;20442;-45
2022/03/26 09:57:00;;;;;;;11.07;9.13;;;12.30;99.90;;;;;;5060025;28;20348;-48
2022/03/26 09:59:27;;;;;;;12.83;9.23;;;12.40;99.90;;;;;;5061093;28;20185;-45
2022/03/26 10:01:56;;;;;;;13.37;8.60;;;12.40;99.90;;;;;;5056245;28;20194;-45
2022/03/26 10:04:25;;;;;;;15.93;9.40;;;12.40;99.90;;;;;;5065682;28;20198;-44
2022/03/26 10:06:54;;;;;;;11.10;8.70;;;12.50;99.90;;;;;;5042315;28;20210;-49
2022/03/26 10:09:33;;;;;;;13.63;9.17;;;12.50;99.90;;;;;;5064868;28;20300;-49
2022/03/26 10:12:01;;;;;;;12.60;8.53;;;12.50;99.90;;;;;;5051192;28;21391;-45
2022/03/26 10:14:42;;;;;;;12.57;8.43;;;12.40;99.90;;;;;;5061691;28;20285;-45
2022/03/26 10:17:14;;;;;;;12.20;8.30;;;12.40;99.90;;;;;;5064250;28;20194;-45
2022/03/26 10:19:46;;;;;;;14.13;8.93;;;12.40;99.90;;;;;;5056499;28;20695;-46
2022/03/26 10:22:27;;;;;;;13.17;8.50;;;12.40;99.90;;;;;;5045226;28;20206;-47
2022/03/26 10:24:55;;;;;;;14.73;9.20;;;12.40;99.90;;;;;;5059985;28;20289;-47
2022/03/26 10:27:22;;;;;;;15.53;8.90;;;12.40;99.90;;;;;;5059694;28;20813;-48
2022/03/26 10:29:51;;;;;;;14.90;8.70;;;12.40;99.90;;;;;;5056986;28;20206;-47
2022/03/26 10:32:39;;;;;;;12.30;9.10;;;12.50;99.90;;;;;;5059825;28;20269;-45
2022/03/26 10:35:08;;;;;;;13.40;9.10;;;12.50;99.90;;;;;;5054547;28;20214;-46
2022/03/26 10:37:43;;;;;;;13.07;9.27;;;12.50;99.90;;;;;;5051559;28;20213;-50
2022/03/26 10:40:22;;;;;;;12.40;9.33;;;12.40;99.90;;;;;;5059454;28;20372;-46
2022/03/26 10:42:56;;;;;;;12.10;9.37;;;12.40;99.90;;;;;;5050171;28;20191;-50
2022/03/26 10:45:24;;;;;;;13.83;9.50;;;12.50;99.90;;;;;;5064067;28;20229;-46
2022/03/26 10:47:54;;;;;;;11.13;9.20;;;12.50;99.90;;;;;;5057717;28;20194;-45
2022/03/26 10:50:22;;;;;;;12.30;9.27;;;12.50;99.90;;;;;;5057906;28;20234;-48
2022/03/26 10:52:48;;;;;;;11.63;9.07;;;12.50;99.90;;;;;;5048772;28;20222;-47
2022/03/26 10:55:16;;;;;;;14.90;9.80;;;12.50;99.90;;;;;;5063747;28;20232;-48
2022/03/26 10:57:45;;;;;;;11.57;8.43;;;12.60;99.90;;;;;;5053277;28;20217;-52
2022/03/26 11:00:13;;;;;;;17.40;10.00;;;12.60;99.90;;;;;;5058335;28;20233;-47
2022/03/26 11:02:41;;;;;;;12.30;9.30;;;12.60;99.90;;;;;;5052875;28;20203;-52
2022/03/26 11:05:10;;;;;;;11.40;9.03;;;12.60;99.90;;;;;;5061720;28;20246;-46
2022/03/26 11:07:38;;;;;;;12.73;9.57;;;12.60;99.90;;;;;;5050580;28;20944;-50
2022/03/26 11:10:07;;;;;;;12.97;9.53;;;12.60;99.90;;;;;;5049527;28;20204;-47
2022/03/26 11:12:35;;;;;;;10.80;8.57;;;12.60;99.90;;;;;;5057099;28;20199;-51
2022/03/26 11:15:05;;;;;;;10.67;8.10;;;12.60;99.90;;;;;;5054730;28;20225;-48
2022/03/26 11:17:44;;;;;;;10.83;8.97;;;12.50;99.90;;;;;;5063617;28;20190;-52
2022/03/26 11:20:34;;;;;;;13.80;8.57;;;12.40;99.90;;;;;;5062672;28;20202;-48
2022/03/26 11:23:22;;;;;;;14.33;9.87;;;12.50;99.90;;;;;;5052234;28;20221;-51
2022/03/26 11:26:03;;;;;;;12.07;9.63;;;12.60;99.90;;;;;;5042183;28;20225;-48
2022/03/26 11:28:51;;;;;;;11.90;8.63;;;12.70;99.90;;;;;;5059410;28;20210;-52
2022/03/26 11:31:25;;;;;;;15.07;9.10;;;12.70;99.90;;;;;;5063733;28;20678;-47
2022/03/26 11:34:03;;;;;;;10.70;8.90;;;12.70;99.90;;;;;;5060274;28;20207;-46
2022/03/26 11:36:32;;;;;;;10.63;9.10;;;12.80;99.90;;;;;;5063359;28;20225;-52
2022/03/26 11:39:10;;;;;;;12.07;8.90;;;12.90;99.90;;;;;;5054859;28;20316;-48
2022/03/26 11:41:36;;;;;;;11.40;8.47;;;12.90;99.90;;;;;;5049806;28;20221;-51
2022/03/26 11:44:06;;;;;;;12.53;8.67;;;13.00;99.90;;;;;;5056668;28;20198;-49
2022/03/26 11:52:19;;;;;;;10.63;8.07;;;13.30;99.90;;;;;;5062419;28;20225;-48
2022/03/26 11:54:48;;;;;;;10.03;8.70;;;13.40;99.90;;;;;;5042166;28;20230;-53
2022/03/26 11:57:19;;;;;;;10.57;7.90;;;13.40;99.90;;;;;;5060614;28;20202;-47
2022/03/26 11:59:47;;;;;;;8.80;6.67;;;13.30;99.90;;;;;;5046386;28;20270;-46
2022/03/26 12:02:19;;;;;;;7.87;6.07;;;13.10;99.90;;;;;;5054479;28;20195;-47
2022/03/26 12:04:54;;;;;;;6.60;6.00;;;13.00;99.90;;;;;;5050710;28;20214;-47
2022/03/26 12:07:27;;;;;;;6.70;6.00;;;13.10;99.90;;;;;;5056232;28;20555;-49
2022/03/26 12:10:06;;;;;;;7.57;4.97;;;13.20;99.90;;;;;;5051674;28;20988;-48
2022/03/26 12:12:47;;;;;;;9.20;6.43;;;13.10;99.90;;;;;;5046409;28;20221;-48
2022/03/26 12:15:27;;;;;;;8.63;5.50;;;13.00;99.90;;;;;;5055546;28;20222;-46
2022/03/26 12:18:05;;;;;;;10.13;6.23;;;13.10;99.90;;;;;;5059126;28;20193;-48
2022/03/26 12:20:34;;;;;;;8.00;6.90;;;13.20;99.90;;;;;;5053750;28;20297;-47
2022/03/26 12:23:06;;;;;;;8.73;6.13;;;13.20;99.90;;;;;;5055574;28;20203;-48
2022/03/26 12:25:47;;;;;;;7.17;5.87;;;13.20;99.90;;;;;;5040758;28;20226;-51
2022/03/26 12:28:15;;;;;;;8.53;5.87;;;13.20;99.90;;;;;;5058582;28;20198;-49
2022/03/26 12:30:51;;;;;;;6.60;4.63;;;13.40;99.90;;;;;;5053222;28;20194;-50
2022/03/26 12:33:18;;;;;;;9.10;5.10;;;13.50;99.90;;;;;;5055860;28;20218;-50
2022/03/26 12:35:47;;;;;;;7.43;5.53;;;13.40;99.90;;;;;;5059074;28;20280;-51
2022/03/26 12:38:16;;;;;;;5.60;4.90;;;13.40;99.90;;;;;;5062122;28;20198;-46
2022/03/26 12:40:49;;;;;;;6.17;4.70;;;13.50;99.90;;;;;;5054002;28;20273;-51
2022/03/26 12:43:17;;;;;;;5.03;4.20;;;13.70;99.90;;;;;;5045448;28;20612;-47
2022/03/26 12:45:43;;;;;;;6.67;4.00;;;13.70;99.90;;;;;;5049659;28;20222;-47